KIWD

Gogebic-Iron County Airport

Ironwood, Michigan, USA
METAR KIWD 242056Z AUTO 18008G20KT 10SM CLR 22/11 A2983 RMK AO2 SLP098 6//// T02220111 56024 PNO $
Observed Flight Rules
Sep-24 @ 20:56 UTC (28 minutes ago) Visual Flight Rules
Wind Visibility Clouds
180° at 8 knots
 Gusting to 20 knots
10 miles
  • Clear skies
Temperatures Readings
Current 22°C / 72°F
Dewpoint 11°C / 52°F
Humidity 50%
Altimeter 29.83" Hg
Pressure 1009.8 hPa
Elevation 375
METAR KIWD 242056Z AUTO 18008G20KT 10SM CLR 22/11 A2983 RMK AO2 SLP098 6//// T02220111 56024 PNO $
Observed Flight Rules
Sep-24 @ 20:56 UTC
(28 minutes ago)
VFR
Wind Visibility
180° at 8 knots
 Gusting to 20 knots
10 miles
Clouds
  • Clear skies
Temperature Dewpoint
22°C / 72°F 11°C / 52°F
Humidity Altimeter Pressure
50% 29.83" Hg 1009.8 hPa